Detall de PIREP

Printer-friendly versionPDF version

[2013/02/28 11:24:00]
Flight IATA:CT1004
Pilot Number:042
Company ICAO:CAT
Aircraft Type:C750/F
PAX:4
Departing Airport: LIMC
Destination Airport: LEBL
Alternate Airport:LEPA
Online: VATSIM
Route:NEDED UM984 DIVKO UN975 BISBA 403.7 NM EDIT



Flight Level:F330
No Slew and time accel
No pause
Crash detect
Detect pilot in Cockpit between each 30 and 45 minutes
11:24 Zero fuel Weight: 22920 Lbs, Fuel Weight: 12960 Lbs
11:24 VATSIM:LIMC 281050Z VRB01KT 9999 BKN040 07/02 Q1025 NOSIG
11:24 VATSIM:LEBL 281100Z 05020KT 9999 FEW020CB SCT040 09/07 Q1017 RERA NOSIG
11:24 VOICE CATALONIAN/MWC 2013 BARCELONA CHARTER
11:37 Parking Brakes off
11:40 Take-off
11:40 Take off Weight: 35759 Lbs
11:40 Wind: 000º @ 000 Knots Heading: 350º
11:40 POS N45º 37´ 55´´ E008º 43´ 22´´
11:40 Gear Up: 157 Knots
11:40 Flaps:4 at 157 Knots
11:41 Flaps:3 at 157 Knots
11:41 Flaps:2 at 161 Knots
11:54 TOC
11:54 Fuel Weight: 12132 Lb
11:55 Wind:328º@054 Knots Heading: 192º Ground Speed: 528 Knots Altitude 33228 ft
12:10 Wind:314º@077 Knots Heading: 255º Ground Speed: 471 Knots Altitude 33254 ft
12:25 Wind:312º@067 Knots Heading: 228º Ground Speed: 503 Knots Altitude 33202 ft
12:28 TOD
12:28 Fuel Weight: 10866 Lb
12:28 TOC
12:28 Fuel Weight: 10859 Lb
12:28 TOD
12:28 Fuel Weight: 10859 Lb
12:40 Wind:344º@017 Knots Heading: 210º Ground Speed: 286 Knots Altitude 8953 ft
12:44 Gear Down: 196 Knots
12:44 Flaps:3 at 196 Knots
12:44 Flaps:4 at 192 Knots
12:44 Flaps:5 at 174 Knots
12:47 TouchDown:Rate -285 ft/min Speed: 122 Knots
12:48 VATSIM:LEBL 281230Z 03017KT 9999 FEW025CB SCT045 10/07 Q1015 NOSIG
12:48 Land
12:48 Wind:212º@004 Knots
12:48 Heading: 062º
12:48 Flight Duration: 01:08
12:48 Landing Weight: 33562 Lbs
12:48 POS N41º 18´ 01´´ E002º 05´ 21´´
12:50 Parking brakes on
12:50 Block to Block Duration: 01:13
12:50 Final Fuel: 10619 Lbls
12:50 Spent Fuel: 2341 Lbls
12:50 Flight Length: 465 NM
12:50 TOD Land Length: 95 NM

Exportar CSV

Powered by Drupal - Modified by Danger4k